TimeMDT,TemperatureF,Dew PointF,Humidity,Sea Level PressureIn,VisibilityMPH,Wind Direction,Wind SpeedMPH,Gust SpeedMPH,PrecipitationIn,Events,Conditions,WindDirDegrees,DateUTC
12:53 AM,64.9,51.1,61,29.88,10.0,ENE,5.8,-,N/A,,Clear,60,2013-08-06 06:53:00
1:53 AM,62.1,53.1,72,29.87,10.0,NNE,4.6,-,N/A,,Clear,30,2013-08-06 07:53:00
2:53 AM,63.0,51.1,65,29.86,10.0,NE,8.1,-,N/A,,Clear,40,2013-08-06 08:53:00
3:53 AM,62.1,51.1,67,29.86,10.0,Calm,Calm,-,N/A,,Clear,0,2013-08-06 09:53:00
4:53 AM,59.0,53.1,81,29.90,10.0,Calm,Calm,-,N/A,,Clear,0,2013-08-06 10:53:00
5:53 AM,55.9,53.1,90,29.91,10.0,NNW,5.8,-,N/A,,Clear,330,2013-08-06 11:53:00
6:53 AM,59.0,53.1,81,29.92,10.0,Calm,Calm,-,N/A,,Clear,0,2013-08-06 12:53:00
7:53 AM,62.1,54.0,75,29.91,10.0,ENE,3.5,-,N/A,,Clear,70,2013-08-06 13:53:00
8:53 AM,69.1,53.1,57,29.90,10.0,ENE,4.6,-,N/A,,Clear,70,2013-08-06 14:53:00
9:53 AM,72.0,52.0,49,29.90,10.0,SSW,4.6,-,N/A,,Clear,210,2013-08-06 15:53:00
10:53 AM,78.1,54.0,43,29.87,10.0,South,8.1,-,N/A,,Clear,190,2013-08-06 16:53:00
11:53 AM,82.9,50.0,32,29.85,10.0,South,11.5,-,N/A,,Clear,180,2013-08-06 17:53:00
12:53 PM,81.0,51.1,35,29.85,10.0,South,13.8,-,N/A,,Clear,180,2013-08-06 18:53:00
1:53 PM,80.1,44.1,28,29.89,10.0,SSE,11.5,17.3,N/A,,Scattered Clouds,160,2013-08-06 19:53:00
2:11 PM,78.8,46.4,32,30.16,10.0,NE,15.0,24.2,N/A,,Mostly Cloudy,50,2013-08-06 20:11:00
2:53 PM,79.0,48.0,34,29.86,10.0,ENE,10.4,-,N/A,,Scattered Clouds,60,2013-08-06 20:53:00
3:53 PM,80.1,46.0,30,29.85,10.0,NNE,8.1,-,N/A,,Clear,30,2013-08-06 21:53:00
4:53 PM,78.1,51.1,39,29.86,10.0,NNW,16.1,-,N/A,,Partly Cloudy,330,2013-08-06 22:53:00
5:53 PM,75.0,48.9,40,29.88,10.0,NNW,13.8,-,0.00,Rain,Light Rain,330,2013-08-06 23:53:00
6:53 PM,75.9,51.1,42,29.85,10.0,NNW,11.5,-,0.00,,Clear,340,2013-08-07 00:53:00
7:53 PM,72.0,53.1,51,29.87,10.0,Calm,Calm,-,N/A,,Clear,0,2013-08-07 01:53:00
8:53 PM,69.1,53.1,57,29.88,10.0,North,9.2,-,N/A,,Overcast,360,2013-08-07 02:53:00
9:53 PM,70.0,54.0,57,29.90,10.0,NW,12.7,-,0.00,,Overcast,320,2013-08-07 03:53:00
10:53 PM,68.0,53.1,59,29.91,10.0,ENE,5.8,-,N/A,,Overcast,70,2013-08-07 04:53:00
11:53 PM,64.9,54.0,68,29.88,10.0,NNE,16.1,-,N/A,,Mostly Cloudy,20,2013-08-07 05:53:00